Main page
METAR-TAF:

METAR-TAF

Airports :

Khartoum, Sudan

Khartoum International Airport

latitude: 15-36N, longitude: 032-33E, elevation: 382 m

Current weather observation

The report was made 20 minutes ago, at 08:30 UTC
Wind 5 kt from the Southwest
Temperature 37°C
Humidity 17%
Pressure 1012 hPa
Visibility 10 km or more
no clouds below 1500 m and no cumulonimbus

METAR: HSSS 300830Z 22005KT CAVOK 37/08 Q1012 NOSIG

Time: 11:50 (08:50 UTC)

Forecast

The report was made 3 hours and 50 minutes ago, at 05:00 UTC
Forecast valid from 30 at 06 UTC to 01 at 12 UTC
Wind 6 kt from the North/Northwest with gusts up to 16 kt
Visibility 10 km or more
no clouds below 1500 m and no cumulonimbus
Temporary
from 30 at 06 UTC to 30 at 09 UTC
Visibility: 6000 m
Temporary
from 30 at 12 UTC to 30 at 16 UTC
Visibility 10 km or more
Few clouds at a height of 4000 ft
Scattered clouds at a height of 14000 ft

TAF: HSSS 300500Z 3006/0112 34006G16KT CAVOK TEMPO 3006/3009 6000 TEMPO 3012/3016 9999 FEW040 SCT140

Weather observations and forecasts of more than 4000 airports (METAR and TAF reports).

The available stations are represented by yellow and red dots on the map.

Hover mouse over dot to see the name of the station.

Then click to see weather observations and forecasts.

To change the map : click on the green buttons with a black cross to zoom in, on the green button with a dash to zoom out, or on the green arrows for adjacent maps.


METAR-TAF: